createdAt,value
2023-03-02T00:00:10.816Z,6.30
2023-03-02T00:02:59.330Z,6.40
2023-03-02T00:05:48.329Z,6.40
2023-03-02T00:08:39.246Z,6.50
2023-03-02T00:11:27.866Z,6.50
2023-03-02T00:14:16.353Z,6.30
2023-03-02T00:17:04.914Z,6.40
2023-03-02T00:19:53.417Z,6.60
2023-03-02T00:22:43.358Z,5.80
2023-03-02T00:25:33.182Z,6.00
2023-03-02T00:28:21.650Z,6.10
2023-03-02T00:31:10.689Z,6.20
2023-03-02T00:33:59.214Z,6.30
2023-03-02T00:36:49.573Z,6.50
2023-03-02T00:39:38.108Z,7.10
2023-03-02T00:42:28.013Z,6.50
2023-03-02T00:45:16.483Z,6.60
2023-03-02T00:48:05.068Z,6.60
2023-03-02T00:50:53.543Z,6.70
2023-03-02T00:53:42.342Z,6.70
2023-03-02T00:56:31.554Z,6.30
2023-03-02T00:59:30.518Z,6.30
2023-03-02T01:02:21.552Z,6.50
2023-03-02T01:05:10.602Z,6.60
2023-03-02T01:07:59.021Z,6.50
2023-03-02T01:10:47.527Z,6.20
2023-03-02T01:13:36.325Z,6.10
2023-03-02T01:16:26.266Z,6.00
2023-03-02T01:19:15.381Z,6.20
2023-03-02T01:22:04.074Z,6.20
2023-03-02T01:24:53.288Z,6.10
2023-03-02T01:27:41.815Z,6.40
2023-03-02T01:30:30.319Z,6.70
2023-03-02T01:33:20.180Z,6.80
2023-03-02T01:36:09.587Z,7.00
2023-03-02T01:38:58.022Z,7.10
2023-03-02T01:41:47.524Z,7.10
2023-03-02T01:44:39.502Z,7.20
2023-03-02T01:47:33.420Z,7.20
2023-03-02T01:50:26.205Z,7.10
2023-03-02T01:53:16.926Z,6.90
2023-03-02T01:56:06.667Z,6.70
2023-03-02T01:59:01.964Z,6.00
2023-03-02T02:01:54.944Z,6.10
2023-03-02T02:04:46.192Z,6.40
2023-03-02T02:07:36.109Z,6.60
2023-03-02T02:10:24.752Z,6.80
2023-03-02T02:13:13.192Z,7.00
2023-03-02T02:16:02.030Z,6.80
2023-03-02T02:18:50.691Z,6.60
2023-03-02T02:21:39.245Z,6.80
2023-03-02T02:24:35.364Z,6.80
2023-03-02T02:27:29.780Z,6.90
2023-03-02T02:30:18.517Z,7.00
2023-03-02T02:33:08.281Z,7.00
2023-03-02T02:36:02.990Z,6.90
2023-03-02T02:38:55.375Z,6.50
2023-03-02T02:41:44.829Z,6.80
2023-03-02T02:44:34.935Z,6.80
2023-03-02T02:47:23.948Z,7.00
2023-03-02T02:50:19.707Z,7.10
2023-03-02T02:53:13.526Z,7.20
2023-03-02T02:56:02.553Z,7.20
2023-03-02T02:58:53.676Z,7.20
2023-03-02T03:01:44.588Z,7.30
2023-03-02T03:04:34.137Z,7.30
2023-03-02T03:07:24.880Z,7.30
2023-03-02T03:10:18.757Z,7.40
2023-03-02T03:13:08.580Z,7.60
2023-03-02T03:15:57.167Z,7.40
2023-03-02T03:18:50.444Z,7.50
2023-03-02T03:21:38.849Z,7.40
2023-03-02T03:24:27.956Z,7.50
2023-03-02T03:27:18.242Z,7.50
2023-03-02T03:30:07.773Z,7.40
2023-03-02T03:32:56.258Z,7.20
2023-03-02T03:35:46.105Z,7.10
2023-03-02T03:38:34.957Z,7.20
2023-03-02T03:41:23.529Z,7.20
2023-03-02T03:44:12.408Z,7.40
2023-03-02T03:47:01.110Z,7.30
2023-03-02T03:49:49.567Z,7.00
2023-03-02T03:52:39.402Z,7.20
2023-03-02T03:55:29.081Z,7.30
2023-03-02T03:58:17.651Z,7.10
2023-03-02T04:01:06.411Z,7.20
2023-03-02T04:03:54.882Z,7.30
2023-03-02T04:06:43.472Z,7.30
2023-03-02T04:09:37.757Z,7.20
2023-03-02T04:12:26.239Z,7.30
2023-03-02T04:15:16.881Z,7.20
2023-03-02T04:18:05.674Z,6.90
2023-03-02T04:20:54.079Z,6.20
2023-03-02T04:23:42.587Z,5.90
2023-03-02T04:26:32.842Z,5.80
2023-03-02T04:29:21.568Z,5.90
2023-03-02T04:32:10.199Z,6.20
2023-03-02T04:34:58.661Z,6.30
2023-03-02T04:37:47.315Z,6.40
2023-03-02T04:40:36.016Z,6.30
2023-03-02T04:43:26.799Z,6.30
2023-03-02T04:46:16.952Z,6.30
2023-03-02T04:49:06.110Z,6.50
2023-03-02T04:51:54.513Z,6.50
2023-03-02T04:54:42.990Z,6.20
2023-03-02T04:57:31.518Z,6.30
2023-03-02T05:00:22.189Z,6.50
2023-03-02T05:03:10.666Z,6.50
2023-03-02T05:05:59.199Z,6.40
2023-03-02T05:08:47.634Z,5.90
2023-03-02T05:11:36.390Z,6.00
2023-03-02T05:14:26.045Z,6.40
2023-03-02T05:17:15.891Z,6.90
2023-03-02T05:20:07.206Z,6.80
2023-03-02T05:22:56.677Z,7.00
2023-03-02T05:25:45.148Z,6.80
2023-03-02T05:28:33.996Z,6.70
2023-03-02T05:31:30.752Z,6.50
2023-03-02T05:34:20.556Z,6.50
2023-03-02T05:37:08.968Z,6.40
2023-03-02T05:39:57.385Z,6.40
2023-03-02T05:42:46.444Z,6.40
2023-03-02T05:45:37.056Z,5.80
2023-03-02T05:48:25.586Z,5.90
2023-03-02T05:51:15.700Z,5.70
2023-03-02T05:54:04.291Z,5.80
2023-03-02T05:56:52.781Z,6.10
2023-03-02T05:59:41.193Z,6.30
2023-03-02T06:02:29.614Z,6.50
2023-03-02T06:05:20.075Z,6.60
2023-03-02T06:08:09.950Z,6.70
2023-03-02T06:10:58.979Z,6.20
2023-03-02T06:13:47.393Z,6.30
2023-03-02T06:16:37.243Z,6.30
2023-03-02T06:19:25.958Z,6.40
2023-03-02T06:22:14.393Z,6.70
2023-03-02T06:25:04.260Z,6.80
2023-03-02T06:27:53.811Z,7.00
2023-03-02T06:30:42.582Z,6.80
2023-03-02T06:33:31.359Z,6.90
2023-03-02T06:36:19.946Z,7.00
2023-03-02T06:39:15.677Z,6.90
2023-03-02T06:42:05.576Z,6.90
2023-03-02T06:44:55.080Z,6.90
2023-03-02T06:47:43.596Z,6.90
2023-03-02T06:50:32.706Z,6.90
2023-03-02T06:53:23.386Z,7.20
2023-03-02T06:56:11.976Z,7.10
2023-03-02T07:01:51.646Z,7.40
2023-03-02T07:04:40.269Z,7.50
2023-03-02T07:07:28.806Z,7.20
2023-03-02T07:10:17.708Z,7.30
2023-03-02T07:13:08.741Z,7.20
2023-03-02T07:15:58.987Z,7.00
2023-03-02T07:18:47.427Z,7.00
2023-03-02T07:21:35.849Z,7.00
2023-03-02T07:27:13.146Z,7.50
2023-03-02T07:30:01.643Z,7.70
2023-03-02T07:32:51.853Z,7.70
2023-03-02T07:35:40.266Z,7.70
2023-03-02T07:38:29.359Z,7.70
2023-03-02T07:44:06.813Z,7.90
2023-03-02T07:46:55.380Z,7.90
2023-03-02T07:49:45.172Z,8.00
2023-03-02T07:52:33.665Z,8.10
2023-03-02T07:55:22.193Z,8.00
2023-03-02T07:58:10.638Z,7.90
2023-03-02T08:00:59.082Z,7.80
2023-03-02T08:03:47.511Z,7.80
2023-03-02T08:06:37.357Z,8.00
2023-03-02T08:09:25.829Z,8.10
2023-03-02T08:12:14.276Z,8.20
2023-03-02T08:15:04.777Z,8.30
2023-03-02T08:17:53.505Z,8.40
2023-03-02T08:20:41.899Z,8.50
2023-03-02T08:23:31.769Z,8.60
2023-03-02T08:26:20.918Z,8.70
2023-03-02T08:29:09.326Z,8.50
2023-03-02T08:31:59.005Z,8.30
2023-03-02T08:34:51.307Z,8.40
2023-03-02T08:37:39.811Z,8.60
2023-03-02T08:40:29.677Z,8.60
2023-03-02T08:43:18.096Z,8.70
2023-03-02T08:46:07.125Z,8.80
2023-03-02T08:48:55.717Z,8.80
2023-03-02T08:51:44.825Z,8.90
2023-03-02T08:54:34.605Z,8.90
2023-03-02T08:57:24.453Z,8.90
2023-03-02T09:00:14.915Z,9.10
2023-03-02T09:03:03.452Z,9.20
2023-03-02T09:05:52.132Z,9.40
2023-03-02T09:08:40.639Z,9.60
2023-03-02T09:11:29.379Z,9.60
2023-03-02T09:14:19.187Z,9.50
2023-03-02T09:17:08.055Z,9.40
2023-03-02T09:19:56.605Z,9.50
2023-03-02T09:22:48.650Z,9.60
2023-03-02T09:25:37.123Z,9.70
2023-03-02T09:34:06.478Z,9.80
2023-03-02T09:36:55.148Z,9.50
2023-03-02T09:39:43.811Z,9.50
2023-03-02T10:23:36.977Z,9.80
2023-03-02T10:26:39.726Z,9.90
2023-03-02T10:29:52.329Z,9.80
2023-03-02T10:32:46.305Z,9.60
2023-03-02T10:44:15.235Z,9.40
2023-03-02T15:19:20.358Z,9.70
2023-03-02T15:22:08.806Z,9.60
2023-03-02T15:24:57.333Z,9.40
2023-03-02T15:27:45.763Z,9.60
2023-03-02T15:30:34.263Z,9.60
2023-03-02T15:33:24.437Z,9.50
2023-03-02T15:36:23.939Z,9.60
2023-03-02T15:39:18.282Z,9.80
2023-03-02T17:54:59.905Z,9.10
2023-03-02T17:57:48.490Z,9.10
2023-03-02T18:00:40.504Z,9.20
2023-03-02T18:37:18.977Z,9.00
2023-03-02T18:40:10.642Z,9.10
2023-03-02T18:51:26.466Z,9.00
2023-03-02T18:54:14.883Z,8.90
2023-03-02T18:57:07.431Z,8.80
2023-03-02T18:59:56.047Z,8.90
2023-03-02T19:02:44.739Z,9.00
2023-03-02T19:05:33.311Z,9.00
2023-03-02T19:08:23.441Z,9.00
2023-03-02T19:11:12.522Z,9.10
2023-03-02T19:16:51.580Z,9.10
2023-03-02T19:19:43.246Z,9.10
2023-03-02T19:22:32.869Z,9.30
2023-03-02T19:25:21.743Z,9.40
2023-03-02T19:28:10.240Z,9.30
2023-03-02T19:31:04.055Z,9.30
2023-03-02T19:33:52.430Z,9.50
2023-03-02T19:36:41.127Z,9.20
2023-03-02T19:39:29.804Z,9.10
2023-03-02T19:42:18.318Z,9.00
2023-03-02T19:45:08.281Z,9.00
2023-03-02T19:47:58.844Z,9.00
2023-03-02T19:50:47.700Z,9.10
2023-03-02T19:53:37.986Z,9.10
2023-03-02T19:56:30.272Z,9.40
2023-03-02T20:13:27.411Z,9.40
2023-03-02T20:16:16.349Z,9.20
2023-03-02T20:19:06.195Z,9.40
2023-03-02T20:21:55.979Z,9.30
2023-03-02T20:24:44.874Z,9.30
2023-03-02T20:27:33.385Z,10.20
2023-03-02T20:30:27.704Z,9.10
2023-03-02T20:33:17.412Z,8.90
2023-03-02T20:36:07.225Z,9.20
2023-03-02T20:39:01.835Z,9.30
2023-03-02T20:41:50.458Z,9.30
2023-03-02T20:44:39.014Z,9.00
2023-03-02T20:47:27.653Z,8.70
2023-03-02T20:50:19.735Z,8.70
2023-03-02T20:53:09.007Z,8.80
2023-03-02T20:55:59.363Z,8.70
2023-03-02T20:58:49.227Z,8.90
2023-03-02T21:01:37.953Z,8.90
2023-03-02T21:04:26.517Z,8.60
2023-03-02T21:07:15.752Z,8.70
2023-03-02T21:10:04.968Z,8.40
2023-03-02T21:12:55.139Z,8.30
2023-03-02T21:15:43.653Z,8.40
2023-03-02T21:18:32.656Z,8.50
2023-03-02T21:21:27.232Z,8.40
2023-03-02T21:24:25.220Z,8.00
2023-03-02T21:27:14.059Z,8.00
2023-03-02T21:30:06.095Z,8.30
2023-03-02T21:32:54.776Z,8.20
2023-03-02T21:35:43.251Z,8.20
2023-03-02T21:38:32.176Z,8.20
2023-03-02T21:41:21.052Z,8.50
2023-03-02T21:44:09.644Z,8.80
2023-03-02T21:46:59.581Z,9.80
2023-03-02T21:49:48.074Z,8.70
2023-03-02T21:52:39.918Z,8.30
2023-03-02T21:55:29.401Z,8.20
2023-03-02T21:58:17.875Z,8.00
2023-03-02T22:01:06.508Z,8.00
2023-03-02T22:03:56.945Z,8.10
2023-03-02T22:06:45.409Z,8.30
2023-03-02T22:09:33.882Z,8.60
2023-03-02T22:12:24.344Z,8.70
2023-03-02T22:15:15.497Z,8.70
2023-03-02T22:18:07.720Z,8.70
2023-03-02T22:20:57.485Z,8.60
2023-03-02T22:23:45.916Z,8.50
2023-03-02T22:26:41.448Z,8.60
2023-03-02T22:29:32.997Z,8.80
2023-03-02T22:32:23.158Z,8.90
2023-03-02T22:35:21.949Z,8.90
2023-03-02T22:38:19.089Z,8.70
2023-03-02T22:41:11.426Z,8.80
2023-03-02T22:43:59.853Z,8.70
2023-03-02T22:46:48.390Z,8.70
2023-03-02T22:49:36.835Z,8.90
2023-03-02T22:52:28.741Z,8.80
2023-03-02T22:58:44.614Z,9.30
2023-03-02T23:01:40.264Z,9.20
2023-03-02T23:04:32.604Z,9.10
2023-03-02T23:07:23.102Z,8.70
2023-03-02T23:10:22.424Z,8.60
2023-03-02T23:13:12.534Z,8.30
2023-03-02T23:16:02.448Z,8.00
2023-03-02T23:18:51.587Z,8.00
2023-03-02T23:21:41.977Z,8.40
2023-03-02T23:24:30.574Z,8.50
2023-03-02T23:27:19.009Z,8.50
2023-03-02T23:30:10.330Z,8.70
2023-03-02T23:32:58.781Z,8.40
2023-03-02T23:35:47.314Z,8.10
2023-03-02T23:38:35.805Z,8.10
2023-03-02T23:41:24.273Z,8.30
2023-03-02T23:44:12.728Z,8.40
2023-03-02T23:47:03.445Z,8.50
2023-03-02T23:49:51.967Z,8.80
2023-03-02T23:52:41.333Z,8.60
2023-03-02T23:55:30.089Z,8.20
2023-03-02T23:58:18.968Z,7.90
